LFRI

La Roche-sur-Yon Airport

La Roche-sur-Yon/Les Ajoncs, France
METAR LFRI 092330Z AUTO 27006KT CAVOK 08/06 Q1030
Observed Flight Rules
Dec-9 @ 23:30 UTC (28 minutes ago) Visual Flight Rules
Wind Visibility Clouds
270° at 6 knots 10,000+ meters
  • Clear skies
Temperatures Readings
Current 8°C / 46°F
Dewpoint 6°C / 43°F
Humidity 87%
Altimeter 30.41" Hg
Pressure 1030 hPa
Elevation 91
METAR LFRI 092330Z AUTO 27006KT CAVOK 08/06 Q1030
Observed Flight Rules
Dec-9 @ 23:30 UTC
(28 minutes ago)
VFR
Wind Visibility
270° at 6 knots 10,000+ meters
Clouds
  • Clear skies
Temperature Dewpoint
8°C / 46°F 6°C / 43°F
Humidity Altimeter Pressure
87% 30.41" Hg 1030 hPa